Time;durP1;ratioP1;P1;durP2;ratioP2;P2;SDS_P1;SDS_P2;PMS_P1;PMS_P2;Temp;Humidity;BMP_temperature;BMP_pressure;BME280_temperature;BME280_humidity;BME280_pressure;Samples;Min_cycle;Max_cycle;Signal;HPM_P1;HPM_P2
2023/04/25 00:01:18;;;;;;;0.70;0.70;;;;;;;;;;5113798;28;20189;-81
2023/04/25 00:03:44;;;;;;;0.70;0.70;;;;;;;;;;5113032;28;20227;-80
2023/04/25 00:06:10;;;;;;;0.63;0.63;;;;;;;;;;5114275;28;20162;-81
2023/04/25 00:08:36;;;;;;;0.60;0.60;;;;;;;;;;5113490;28;20178;-80
2023/04/25 00:11:02;;;;;;;0.60;0.60;;;;;;;;;;5113313;28;20173;-80
2023/04/25 00:13:28;;;;;;;0.60;0.60;;;;;;;;;;5111642;28;20185;-80
2023/04/25 00:15:54;;;;;;;0.63;0.63;;;;;;;;;;5110837;28;20216;-81
2023/04/25 00:18:20;;;;;;;0.50;0.50;;;;;;;;;;5100499;28;20170;-82
2023/04/25 00:20:46;;;;;;;0.60;0.60;;;;;;;;;;5095706;28;20227;-81
2023/04/25 00:23:17;;;;;;;0.67;0.67;;;;;;;;;;5095064;28;20227;-81
2023/04/25 00:25:44;;;;;;;0.60;0.60;;;;;;;;;;5096055;28;20180;-81
2023/04/25 00:28:10;;;;;;;0.60;0.60;;;;;;;;;;5096921;28;20900;-82
2023/04/25 00:30:36;;;;;;;0.50;0.50;;;;;;;;;;5097526;28;20174;-82
2023/04/25 00:33:02;;;;;;;0.70;0.70;;;;;;;;;;5095447;28;20200;-81
2023/04/25 00:35:28;;;;;;;0.70;0.70;;;;;;;;;;5096801;28;20209;-81
2023/04/25 00:37:55;;;;;;;0.60;0.60;;;;;;;;;;5096830;28;20660;-81
2023/04/25 00:40:21;;;;;;;0.60;0.60;;;;;;;;;;5096570;28;20186;-82
2023/04/25 00:42:47;;;;;;;0.70;0.70;;;;;;;;;;5106348;28;20186;-81
2023/04/25 00:45:17;;;;;;;0.60;0.60;;;;;;;;;;5114160;28;20194;-82
2023/04/25 00:47:43;;;;;;;0.70;0.70;;;;;;;;;;5113853;28;20174;-80
2023/04/25 00:50:10;;;;;;;0.60;0.60;;;;;;;;;;5102159;28;20197;-82
2023/04/25 00:52:38;;;;;;;0.77;0.77;;;;;;;;;;5095485;28;20193;-80
2023/04/25 00:55:05;;;;;;;0.70;0.70;;;;;;;;;;5094662;28;20304;-80
2023/04/25 00:57:31;;;;;;;0.60;0.60;;;;;;;;;;5094776;28;20714;-79
2023/04/25 00:59:57;;;;;;;0.60;0.60;;;;;;;;;;5095047;28;20170;-79
2023/04/25 01:02:23;;;;;;;0.63;0.63;;;;;;;;;;5094846;28;20170;-80
2023/04/25 01:04:49;;;;;;;0.60;0.60;;;;;;;;;;5094979;28;20202;-80
2023/04/25 01:07:16;;;;;;;0.70;0.70;;;;;;;;;;5095263;28;20173;-80
2023/04/25 01:09:42;;;;;;;0.60;0.60;;;;;;;;;;5094419;28;20685;-80
2023/04/25 01:12:08;;;;;;;0.60;0.60;;;;;;;;;;5094749;28;20170;-80
2023/04/25 01:14:34;;;;;;;0.67;0.67;;;;;;;;;;5093921;28;20209;-80
2023/04/25 01:17:00;;;;;;;0.60;0.60;;;;;;;;;;5094694;28;20189;-81
2023/04/25 01:19:26;;;;;;;0.57;0.57;;;;;;;;;;5094717;28;20190;-80
2023/04/25 01:21:52;;;;;;;0.60;0.60;;;;;;;;;;5076397;28;20589;-80
2023/04/25 01:24:18;;;;;;;0.60;0.60;;;;;;;;;;5094465;28;20193;-81
2023/04/25 01:26:49;;;;;;;0.50;0.50;;;;;;;;;;5094923;28;20188;-79
2023/04/25 01:29:15;;;;;;;0.60;0.60;;;;;;;;;;5094203;28;20185;-81
2023/04/25 01:31:41;;;;;;;0.70;0.70;;;;;;;;;;5094965;28;20200;-80
2023/04/25 01:34:07;;;;;;;0.70;0.70;;;;;;;;;;5094543;28;20189;-80
2023/04/25 01:36:33;;;;;;;0.70;0.70;;;;;;;;;;5094400;28;20209;-81
2023/04/25 01:39:00;;;;;;;0.70;0.70;;;;;;;;;;5094616;28;20173;-81
2023/04/25 01:41:26;;;;;;;0.60;0.60;;;;;;;;;;5094138;28;20235;-80
2023/04/25 01:43:52;;;;;;;0.70;0.70;;;;;;;;;;5095874;28;20198;-80
2023/04/25 01:46:18;;;;;;;0.80;0.80;;;;;;;;;;5098396;28;20200;-80
2023/04/25 01:48:44;;;;;;;0.70;0.70;;;;;;;;;;5098982;28;20202;-80
2023/04/25 01:51:11;;;;;;;0.63;0.63;;;;;;;;;;5098157;28;20252;-80
2023/04/25 01:53:37;;;;;;;0.70;0.70;;;;;;;;;;5098394;28;20583;-80
2023/04/25 01:56:04;;;;;;;0.67;0.67;;;;;;;;;;5098510;28;20236;-81
2023/04/25 01:58:30;;;;;;;0.70;0.70;;;;;;;;;;5097967;28;20182;-81
2023/04/25 02:00:55;;;;;;;0.60;0.60;;;;;;;;;;5098304;28;20261;-80
2023/04/25 02:03:21;;;;;;;0.70;0.70;;;;;;;;;;5097641;28;20204;-80
2023/04/25 02:05:48;;;;;;;0.80;0.80;;;;;;;;;;5098600;28;20174;-80
2023/04/25 02:08:14;;;;;;;0.70;0.70;;;;;;;;;;5098514;28;20193;-81
2023/04/25 02:10:40;;;;;;;0.80;0.80;;;;;;;;;;5098330;28;20181;-80
2023/04/25 02:13:06;;;;;;;0.70;0.70;;;;;;;;;;5097699;28;20269;-81
2023/04/25 02:15:32;;;;;;;0.70;0.70;;;;;;;;;;5096823;28;20707;-80
2023/04/25 02:17:59;;;;;;;0.70;0.70;;;;;;;;;;5098079;28;20174;-80
2023/04/25 02:20:26;;;;;;;0.60;0.60;;;;;;;;;;5098362;28;20518;-79
2023/04/25 02:22:52;;;;;;;0.70;0.70;;;;;;;;;;5097926;28;20598;-80
2023/04/25 02:25:19;;;;;;;0.80;0.80;;;;;;;;;;5098181;28;20700;-80
2023/04/25 02:27:45;;;;;;;0.60;0.60;;;;;;;;;;5097770;28;20215;-79
2023/04/25 02:30:11;;;;;;;0.60;0.60;;;;;;;;;;5098315;28;20851;-79
2023/04/25 02:32:37;;;;;;;0.70;0.70;;;;;;;;;;5097553;28;20169;-80
2023/04/25 02:35:04;;;;;;;0.70;0.70;;;;;;;;;;5097473;28;20237;-80
2023/04/25 02:37:30;;;;;;;0.60;0.60;;;;;;;;;;5097808;28;20174;-79
2023/04/25 02:39:56;;;;;;;0.70;0.70;;;;;;;;;;5097693;28;20541;-80
2023/04/25 02:42:22;;;;;;;0.80;0.80;;;;;;;;;;5097554;28;20281;-80
2023/04/25 02:44:48;;;;;;;0.70;0.70;;;;;;;;;;5079016;28;20251;-79
2023/04/25 02:47:14;;;;;;;0.60;0.60;;;;;;;;;;5097727;28;20213;-80
2023/04/25 02:49:40;;;;;;;0.70;0.70;;;;;;;;;;5097705;28;20170;-81
2023/04/25 02:52:06;;;;;;;0.70;0.70;;;;;;;;;;5097707;28;20181;-80
2023/04/25 02:54:32;;;;;;;0.70;0.70;;;;;;;;;;5097312;28;20749;-81
2023/04/25 02:56:58;;;;;;;0.60;0.60;;;;;;;;;;5097629;28;20174;-81
2023/04/25 02:59:24;;;;;;;0.60;0.60;;;;;;;;;;5098457;28;20670;-80
2023/04/25 03:01:50;;;;;;;0.53;0.53;;;;;;;;;;5098164;28;20219;-80
2023/04/25 03:04:16;;;;;;;0.60;0.60;;;;;;;;;;5097894;28;20193;-80
2023/04/25 03:06:42;;;;;;;0.60;0.60;;;;;;;;;;5097715;28;20180;-80
2023/04/25 03:09:08;;;;;;;0.70;0.70;;;;;;;;;;5099533;28;20178;-79
2023/04/25 03:11:34;;;;;;;0.70;0.70;;;;;;;;;;5098860;28;20178;-80
2023/04/25 03:14:00;;;;;;;0.70;0.70;;;;;;;;;;5099261;28;20217;-80
2023/04/25 03:16:26;;;;;;;0.53;0.53;;;;;;;;;;5098330;28;20512;-80
2023/04/25 03:18:52;;;;;;;0.60;0.60;;;;;;;;;;5098591;28;20170;-81
2023/04/25 03:21:18;;;;;;;0.60;0.60;;;;;;;;;;5098854;28;20185;-79
2023/04/25 03:23:44;;;;;;;0.63;0.63;;;;;;;;;;5098016;28;20198;-79
2023/04/25 03:26:10;;;;;;;0.60;0.60;;;;;;;;;;5099132;28;20536;-80
2023/04/25 03:28:36;;;;;;;0.70;0.70;;;;;;;;;;5099495;28;20238;-80
2023/04/25 03:31:02;;;;;;;0.63;0.63;;;;;;;;;;5098688;28;20170;-80
2023/04/25 03:33:28;;;;;;;0.60;0.60;;;;;;;;;;5097913;28;20216;-81
2023/04/25 03:35:54;;;;;;;0.60;0.60;;;;;;;;;;5098532;28;20795;-79
2023/04/25 03:38:20;;;;;;;0.50;0.50;;;;;;;;;;5098594;28;20174;-81
2023/04/25 03:40:46;;;;;;;0.50;0.50;;;;;;;;;;5098295;28;20197;-80
2023/04/25 03:43:12;;;;;;;0.70;0.70;;;;;;;;;;5097816;28;20296;-81
2023/04/25 03:45:38;;;;;;;0.60;0.60;;;;;;;;;;5098192;28;20182;-80
2023/04/25 03:48:04;;;;;;;0.60;0.60;;;;;;;;;;5098393;28;20174;-81
2023/04/25 03:50:30;;;;;;;0.60;0.60;;;;;;;;;;5098305;28;20201;-80
2023/04/25 03:52:56;;;;;;;0.70;0.70;;;;;;;;;;5097496;28;20178;-82
2023/04/25 03:55:22;;;;;;;0.70;0.70;;;;;;;;;;5098958;28;20236;-82
2023/04/25 03:57:48;;;;;;;0.70;0.70;;;;;;;;;;5098349;28;20197;-82
2023/04/25 04:00:14;;;;;;;0.70;0.70;;;;;;;;;;5099719;28;20185;-81
2023/04/25 04:02:40;;;;;;;0.80;0.80;;;;;;;;;;5099169;28;20326;-81
2023/04/25 04:05:06;;;;;;;0.70;0.70;;;;;;;;;;5099401;28;20240;-80
2023/04/25 04:07:33;;;;;;;0.60;0.60;;;;;;;;;;5098544;28;20201;-79
2023/04/25 04:09:59;;;;;;;0.60;0.60;;;;;;;;;;5099073;28;20235;-80
2023/04/25 04:12:25;;;;;;;0.70;0.70;;;;;;;;;;5097686;28;20242;-81
2023/04/25 04:14:51;;;;;;;0.73;0.73;;;;;;;;;;5098313;28;20213;-81
2023/04/25 04:17:17;;;;;;;0.60;0.60;;;;;;;;;;5097793;28;20180;-81
2023/04/25 04:19:43;;;;;;;0.70;0.70;;;;;;;;;;5097248;28;20178;-80
2023/04/25 04:22:10;;;;;;;0.60;0.60;;;;;;;;;;5097002;28;20170;-83
2023/04/25 04:24:36;;;;;;;0.67;0.67;;;;;;;;;;5095122;28;20194;-81
2023/04/25 04:27:02;;;;;;;0.60;0.60;;;;;;;;;;5096975;28;20184;-81
2023/04/25 04:29:28;;;;;;;0.60;0.60;;;;;;;;;;5097683;28;20717;-82
2023/04/25 04:31:54;;;;;;;0.70;0.70;;;;;;;;;;5098099;28;20173;-80
2023/04/25 04:34:20;;;;;;;0.60;0.60;;;;;;;;;;5097912;28;20702;-81
2023/04/25 04:36:46;;;;;;;0.80;0.80;;;;;;;;;;5099411;28;20268;-81
2023/04/25 04:39:13;;;;;;;0.70;0.70;;;;;;;;;;5099126;28;20777;-81
2023/04/25 04:41:39;;;;;;;0.70;0.70;;;;;;;;;;5099456;28;20218;-80
2023/04/25 04:44:06;;;;;;;0.70;0.70;;;;;;;;;;5098547;28;20657;-81
2023/04/25 04:46:37;;;;;;;0.70;0.70;;;;;;;;;;5098631;28;20680;-80
2023/04/25 04:49:05;;;;;;;0.60;0.60;;;;;;;;;;5099100;28;20177;-80
2023/04/25 04:51:31;;;;;;;0.77;0.77;;;;;;;;;;5099231;28;20243;-81
2023/04/25 04:53:58;;;;;;;0.70;0.70;;;;;;;;;;5098778;28;20227;-81
2023/04/25 04:56:25;;;;;;;0.67;0.67;;;;;;;;;;5099369;28;20700;-81
2023/04/25 04:58:52;;;;;;;0.50;0.50;;;;;;;;;;5099065;28;20204;-82
2023/04/25 05:01:18;;;;;;;0.60;0.60;;;;;;;;;;5099593;28;20166;-81
2023/04/25 05:03:44;;;;;;;0.70;0.70;;;;;;;;;;5098757;28;20213;-80
2023/04/25 05:06:10;;;;;;;0.70;0.70;;;;;;;;;;5099184;28;20169;-80
2023/04/25 05:08:37;;;;;;;0.70;0.70;;;;;;;;;;5102150;28;20209;-81
2023/04/25 05:11:03;;;;;;;0.60;0.60;;;;;;;;;;5101232;28;20188;-80
2023/04/25 05:13:29;;;;;;;0.70;0.70;;;;;;;;;;5097630;28;20196;-81
2023/04/25 05:15:55;;;;;;;0.70;0.70;;;;;;;;;;5097640;28;20263;-80
2023/04/25 05:18:21;;;;;;;0.50;0.50;;;;;;;;;;5096591;28;20178;-80
2023/04/25 05:20:47;;;;;;;0.70;0.70;;;;;;;;;;5096899;28;20256;-82
2023/04/25 05:23:13;;;;;;;0.60;0.60;;;;;;;;;;5095921;28;20543;-81
2023/04/25 05:25:39;;;;;;;0.60;0.60;;;;;;;;;;5097458;28;20177;-80
2023/04/25 05:28:05;;;;;;;0.70;0.70;;;;;;;;;;5097609;28;20170;-82
2023/04/25 05:30:31;;;;;;;0.60;0.60;;;;;;;;;;5098025;28;20249;-80
2023/04/25 05:32:57;;;;;;;0.90;0.90;;;;;;;;;;5087238;28;20198;-81
2023/04/25 05:35:23;;;;;;;0.67;0.67;;;;;;;;;;5093248;28;20213;-82
2023/04/25 05:37:49;;;;;;;0.70;0.70;;;;;;;;;;5079281;28;20174;-81
2023/04/25 05:40:15;;;;;;;0.60;0.60;;;;;;;;;;5097409;28;20571;-81
2023/04/25 05:42:41;;;;;;;0.60;0.60;;;;;;;;;;5097958;28;20178;-82
2023/04/25 05:45:07;;;;;;;0.70;0.70;;;;;;;;;;5097704;28;20649;-81
2023/04/25 05:47:33;;;;;;;0.63;0.63;;;;;;;;;;5097739;28;20174;-80
2023/04/25 05:49:59;;;;;;;0.67;0.67;;;;;;;;;;5097901;28;20200;-80
2023/04/25 05:52:25;;;;;;;0.80;0.80;;;;;;;;;;5096757;28;20201;-81
2023/04/25 05:54:51;;;;;;;0.60;0.60;;;;;;;;;;5096663;28;20209;-82
2023/04/25 05:57:20;;;;;;;0.60;0.60;;;;;;;;;;5096571;28;20561;-82
2023/04/25 05:59:47;;;;;;;0.70;0.70;;;;;;;;;;5097447;28;20268;-84
2023/04/25 06:02:12;;;;;;;0.60;0.60;;;;;;;;;;5096068;28;20672;-82
2023/04/25 06:04:38;;;;;;;0.50;0.50;;;;;;;;;;5096533;28;20190;-81
2023/04/25 06:07:04;;;;;;;0.70;0.70;;;;;;;;;;5098753;28;20641;-81
2023/04/25 06:09:30;;;;;;;0.60;0.60;;;;;;;;;;5096202;28;20602;-80
2023/04/25 06:11:56;;;;;;;0.60;0.60;;;;;;;;;;5089295;28;20174;-81
2023/04/25 06:14:22;;;;;;;0.70;0.70;;;;;;;;;;5091814;28;20680;-82
2023/04/25 06:16:48;;;;;;;0.70;0.70;;;;;;;;;;5089905;28;20174;-81
2023/04/25 06:19:14;;;;;;;0.60;0.60;;;;;;;;;;5090084;28;20181;-80
2023/04/25 06:21:40;;;;;;;0.57;0.57;;;;;;;;;;5089023;28;20167;-83
2023/04/25 06:24:06;;;;;;;0.60;0.60;;;;;;;;;;5089293;28;20570;-82
2023/04/25 06:26:32;;;;;;;0.50;0.50;;;;;;;;;;5091695;28;20645;-82
2023/04/25 06:28:58;;;;;;;0.60;0.60;;;;;;;;;;5091873;28;20173;-82
2023/04/25 06:31:25;;;;;;;0.60;0.60;;;;;;;;;;5094971;28;20233;-81
2023/04/25 06:33:54;;;;;;;0.57;0.57;;;;;;;;;;5093032;28;20213;-83
2023/04/25 06:36:24;;;;;;;0.70;0.70;;;;;;;;;;5093647;28;20234;-82
2023/04/25 06:38:50;;;;;;;0.53;0.53;;;;;;;;;;5099356;28;20178;-82
2023/04/25 06:41:16;;;;;;;0.70;0.70;;;;;;;;;;5098001;28;20169;-83
2023/04/25 06:43:42;;;;;;;0.77;0.77;;;;;;;;;;5086586;28;20280;-80
2023/04/25 06:46:08;;;;;;;0.70;0.70;;;;;;;;;;5097905;28;20624;-82
2023/04/25 06:48:34;;;;;;;0.70;0.70;;;;;;;;;;5098800;28;20247;-81
2023/04/25 06:51:00;;;;;;;0.60;0.60;;;;;;;;;;5094485;28;20577;-82
2023/04/25 06:53:26;;;;;;;0.70;0.70;;;;;;;;;;5098357;28;20258;-81
2023/04/25 06:55:52;;;;;;;0.87;0.87;;;;;;;;;;5095772;28;20217;-81
2023/04/25 06:58:18;;;;;;;0.60;0.60;;;;;;;;;;5089492;28;20548;-80
2023/04/25 07:00:44;;;;;;;0.60;0.60;;;;;;;;;;5094118;28;20253;-82
2023/04/25 07:03:10;;;;;;;0.67;0.67;;;;;;;;;;5092849;28;20178;-84
2023/04/25 07:05:36;;;;;;;0.70;0.70;;;;;;;;;;5077953;28;20186;-82
2023/04/25 07:08:03;;;;;;;0.67;0.67;;;;;;;;;;5079901;28;20193;-82
2023/04/25 07:10:29;;;;;;;0.60;0.60;;;;;;;;;;5077440;28;20182;-83
2023/04/25 07:12:55;;;;;;;0.70;0.70;;;;;;;;;;5080800;28;20668;-83
2023/04/25 07:15:21;;;;;;;0.70;0.70;;;;;;;;;;5091734;28;20315;-81
2023/04/25 07:17:47;;;;;;;0.70;0.70;;;;;;;;;;5098728;28;20593;-83
2023/04/25 07:20:13;;;;;;;0.70;0.70;;;;;;;;;;5097563;28;20184;-86
2023/04/25 07:22:39;;;;;;;0.60;0.60;;;;;;;;;;5098236;28;20644;-82
2023/04/25 07:25:06;;;;;;;0.60;0.60;;;;;;;;;;5097305;28;20204;-83
2023/04/25 07:27:32;;;;;;;0.60;0.60;;;;;;;;;;5098880;28;20174;-84
2023/04/25 07:29:58;;;;;;;0.73;0.73;;;;;;;;;;5096668;28;20200;-81
2023/04/25 07:32:24;;;;;;;0.70;0.70;;;;;;;;;;5097053;28;20707;-83
2023/04/25 07:34:50;;;;;;;0.70;0.70;;;;;;;;;;5097115;28;20210;-84
2023/04/25 07:37:18;;;;;;;0.70;0.70;;;;;;;;;;5097979;28;20256;-81
2023/04/25 07:39:45;;;;;;;0.70;0.70;;;;;;;;;;5097416;28;20184;-83
2023/04/25 07:42:12;;;;;;;0.60;0.60;;;;;;;;;;5097764;28;20189;-82
2023/04/25 07:44:42;;;;;;;0.60;0.60;;;;;;;;;;5096974;28;20189;-81
2023/04/25 07:47:08;;;;;;;0.70;0.70;;;;;;;;;;5094989;28;20213;-81
2023/04/25 07:49:37;;;;;;;0.50;0.50;;;;;;;;;;5088607;28;20706;-82
2023/04/25 07:52:04;;;;;;;0.80;0.80;;;;;;;;;;5089433;28;20194;-83
2023/04/25 07:54:30;;;;;;;0.60;0.60;;;;;;;;;;5076843;28;20205;-82
2023/04/25 07:56:56;;;;;;;0.60;0.60;;;;;;;;;;5085242;28;20189;-82
2023/04/25 07:59:22;;;;;;;0.67;0.67;;;;;;;;;;5092341;28;20197;-82
2023/04/25 08:01:48;;;;;;;0.70;0.70;;;;;;;;;;5097853;28;20177;-82
2023/04/25 08:04:14;;;;;;;0.67;0.67;;;;;;;;;;5096572;28;20689;-82
2023/04/25 08:06:40;;;;;;;0.60;0.60;;;;;;;;;;5093311;28;20182;-82
2023/04/25 08:09:08;;;;;;;0.60;0.60;;;;;;;;;;5089161;28;20173;-83
2023/04/25 08:11:34;;;;;;;0.77;0.77;;;;;;;;;;5091658;28;20178;-83
2023/04/25 08:14:00;;;;;;;0.70;0.70;;;;;;;;;;5080417;28;20260;-81
2023/04/25 08:16:27;;;;;;;0.80;0.80;;;;;;;;;;5076630;28;20210;-84
2023/04/25 08:18:53;;;;;;;0.60;0.60;;;;;;;;;;5076388;28;20241;-83
2023/04/25 08:21:20;;;;;;;0.60;0.60;;;;;;;;;;5076727;28;20175;-82
2023/04/25 08:23:45;;;;;;;0.80;0.80;;;;;;;;;;5076326;28;20218;-82
2023/04/25 08:26:11;;;;;;;0.83;0.83;;;;;;;;;;5076083;28;20174;-83
2023/04/25 08:28:37;;;;;;;0.60;0.60;;;;;;;;;;5077094;28;20558;-81
2023/04/25 08:31:04;;;;;;;0.70;0.70;;;;;;;;;;5078723;28;20178;-82
2023/04/25 08:33:30;;;;;;;0.70;0.70;;;;;;;;;;5078000;28;20204;-82
2023/04/25 08:35:56;;;;;;;0.73;0.73;;;;;;;;;;5088746;28;20550;-80
2023/04/25 08:38:23;;;;;;;0.63;0.63;;;;;;;;;;5090442;28;20170;-81
2023/04/25 08:40:52;;;;;;;0.70;0.70;;;;;;;;;;5083514;28;20261;-82
2023/04/25 08:43:19;;;;;;;0.60;0.60;;;;;;;;;;5087559;28;21655;-81
2023/04/25 08:45:45;;;;;;;0.80;0.80;;;;;;;;;;5088165;28;20184;-81
2023/04/25 08:48:13;;;;;;;0.60;0.60;;;;;;;;;;5087342;28;20178;-82
2023/04/25 08:50:55;;;;;;;0.60;0.60;;;;;;;;;;5072297;28;20182;-81
2023/04/25 08:53:22;;;;;;;0.60;0.60;;;;;;;;;;5089345;28;20224;-82
2023/04/25 08:55:49;;;;;;;0.60;0.60;;;;;;;;;;5085610;28;20206;-80
2023/04/25 08:58:15;;;;;;;0.60;0.60;;;;;;;;;;5094674;28;20190;-81
2023/04/25 09:00:41;;;;;;;0.70;0.70;;;;;;;;;;5097196;28;20181;-81
2023/04/25 09:03:08;;;;;;;0.70;0.70;;;;;;;;;;5097154;28;20182;-81
2023/04/25 09:05:35;;;;;;;0.60;0.60;;;;;;;;;;5097356;28;20292;-82
2023/04/25 09:08:01;;;;;;;0.70;0.70;;;;;;;;;;5087287;28;20186;-81
2023/04/25 09:10:27;;;;;;;0.60;0.60;;;;;;;;;;5082018;28;20171;-82
2023/04/25 09:13:03;;;;;;;0.60;0.60;;;;;;;;;;5094610;28;20611;-84
2023/04/25 09:15:30;;;;;;;0.70;0.70;;;;;;;;;;5077389;28;20269;-81
2023/04/25 09:17:56;;;;;;;0.70;0.70;;;;;;;;;;5080842;28;20263;-80
2023/04/25 09:20:22;;;;;;;0.70;0.70;;;;;;;;;;5093528;28;20189;-82
2023/04/25 09:22:48;;;;;;;0.70;0.70;;;;;;;;;;5101959;28;20173;-83
2023/04/25 09:25:14;;;;;;;0.70;0.70;;;;;;;;;;5084984;28;20202;-80
2023/04/25 09:27:51;;;;;;;0.60;0.60;;;;;;;;;;5098520;28;20170;-81
2023/04/25 09:30:17;;;;;;;0.60;0.60;;;;;;;;;;5100923;28;20174;-81
2023/04/25 09:32:43;;;;;;;0.63;0.63;;;;;;;;;;5088565;28;20178;-81
2023/04/25 09:35:11;;;;;;;0.70;0.70;;;;;;;;;;5090578;28;20207;-81
2023/04/25 09:37:37;;;;;;;0.70;0.70;;;;;;;;;;5085351;28;20645;-82
2023/04/25 09:40:06;;;;;;;0.60;0.60;;;;;;;;;;5079416;28;20185;-82
2023/04/25 09:42:34;;;;;;;0.60;0.60;;;;;;;;;;5091296;28;20174;-81
2023/04/25 09:45:01;;;;;;;0.70;0.70;;;;;;;;;;5080652;28;20270;-82
2023/04/25 09:47:28;;;;;;;0.60;0.60;;;;;;;;;;5091717;28;20251;-82
2023/04/25 09:49:55;;;;;;;0.50;0.50;;;;;;;;;;5087414;28;20174;-81
2023/04/25 09:52:22;;;;;;;0.60;0.60;;;;;;;;;;5087385;28;20173;-81
2023/04/25 09:54:48;;;;;;;0.50;0.50;;;;;;;;;;5081184;28;20324;-79
2023/04/25 09:57:14;;;;;;;0.60;0.60;;;;;;;;;;5085166;28;20190;-80
2023/04/25 09:59:43;;;;;;;0.63;0.63;;;;;;;;;;5095963;28;20174;-80
2023/04/25 10:02:10;;;;;;;0.60;0.60;;;;;;;;;;5093308;28;20665;-82
2023/04/25 10:04:36;;;;;;;0.70;0.70;;;;;;;;;;5096316;28;20190;-79
2023/04/25 10:07:04;;;;;;;0.60;0.60;;;;;;;;;;5091972;28;20652;-80
2023/04/25 10:09:35;;;;;;;0.60;0.60;;;;;;;;;;5087895;28;20375;-80
2023/04/25 10:12:01;;;;;;;0.70;0.70;;;;;;;;;;5088482;28;20226;-80
2023/04/25 10:14:28;;;;;;;0.57;0.57;;;;;;;;;;5091757;28;20186;-80
2023/04/25 10:16:55;;;;;;;0.60;0.60;;;;;;;;;;5088636;28;20174;-80
2023/04/25 10:19:22;;;;;;;0.63;0.63;;;;;;;;;;5093257;28;20182;-81
2023/04/25 10:21:52;;;;;;;0.70;0.70;;;;;;;;;;5092235;28;20653;-80
2023/04/25 10:24:19;;;;;;;0.70;0.70;;;;;;;;;;5086589;28;20233;-80
2023/04/25 10:26:46;;;;;;;0.63;0.63;;;;;;;;;;5087422;28;20213;-80
2023/04/25 10:29:12;;;;;;;0.60;0.60;;;;;;;;;;5089331;28;20179;-82
2023/04/25 10:31:46;;;;;;;0.60;0.60;;;;;;;;;;5086092;28;20181;-80
2023/04/25 10:34:12;;;;;;;0.50;0.50;;;;;;;;;;5087730;28;20201;-81
2023/04/25 10:36:39;;;;;;;0.60;0.60;;;;;;;;;;5089806;28;20529;-81
2023/04/25 10:39:07;;;;;;;0.60;0.60;;;;;;;;;;5089806;28;20241;-83
2023/04/25 10:41:45;;;;;;;0.63;0.63;;;;;;;;;;5084949;28;20182;-82
2023/04/25 10:44:11;;;;;;;0.70;0.70;;;;;;;;;;5100662;28;20224;-83
2023/04/25 10:46:37;;;;;;;0.53;0.53;;;;;;;;;;5100620;28;20205;-81
2023/04/25 10:49:04;;;;;;;0.63;0.63;;;;;;;;;;5100180;28;20169;-81
2023/04/25 10:51:34;;;;;;;0.50;0.50;;;;;;;;;;5100947;28;20239;-80
2023/04/25 10:54:07;;;;;;;0.60;0.60;;;;;;;;;;5099820;28;20193;-84
2023/04/25 10:56:46;;;;;;;0.60;0.60;;;;;;;;;;5099366;28;20186;-82
2023/04/25 10:59:14;;;;;;;0.60;0.60;;;;;;;;;;5099808;28;20182;-81
2023/04/25 11:01:44;;;;;;;0.63;0.63;;;;;;;;;;5099863;28;20663;-81
2023/04/25 11:04:23;;;;;;;0.63;0.63;;;;;;;;;;5095648;28;20231;-81
2023/04/25 11:07:01;;;;;;;0.60;0.60;;;;;;;;;;5088787;28;20201;-82
2023/04/25 11:09:27;;;;;;;0.60;0.60;;;;;;;;;;5085361;28;20178;-82
2023/04/25 11:11:55;;;;;;;0.60;0.60;;;;;;;;;;5088317;28;20189;-84
2023/04/25 11:14:21;;;;;;;0.63;0.63;;;;;;;;;;5094162;28;20198;-84
2023/04/25 11:16:47;;;;;;;0.70;0.70;;;;;;;;;;5091176;28;20178;-82
2023/04/25 11:19:13;;;;;;;0.60;0.60;;;;;;;;;;5086188;28;20173;-82
2023/04/25 11:21:39;;;;;;;0.70;0.70;;;;;;;;;;5086231;28;20515;-81
2023/04/25 11:24:05;;;;;;;0.60;0.60;;;;;;;;;;5089192;28;20189;-82
2023/04/25 11:26:31;;;;;;;0.70;0.70;;;;;;;;;;5090415;28;20206;-82
2023/04/25 11:28:59;;;;;;;0.60;0.60;;;;;;;;;;5096175;28;20687;-84
2023/04/25 11:31:25;;;;;;;0.70;0.70;;;;;;;;;;5092404;28;20177;-85
2023/04/25 11:33:53;;;;;;;0.60;0.60;;;;;;;;;;5086591;28;20542;-85
2023/04/25 11:36:19;;;;;;;0.60;0.60;;;;;;;;;;5081097;28;20217;-83
2023/04/25 11:38:45;;;;;;;0.60;0.60;;;;;;;;;;5081043;28;20651;-84
2023/04/25 11:41:11;;;;;;;0.60;0.60;;;;;;;;;;5083169;28;20179;-86
2023/04/25 11:43:37;;;;;;;0.60;0.60;;;;;;;;;;5088115;28;20202;-84
2023/04/25 11:46:07;;;;;;;0.60;0.60;;;;;;;;;;5091435;28;20741;-82
2023/04/25 11:48:40;;;;;;;0.60;0.60;;;;;;;;;;5096221;28;20170;-83
2023/04/25 11:51:06;;;;;;;0.60;0.60;;;;;;;;;;5101616;28;20166;-82
2023/04/25 11:53:32;;;;;;;0.80;0.80;;;;;;;;;;5101222;28;20196;-83
2023/04/25 11:55:58;;;;;;;0.63;0.63;;;;;;;;;;5108109;28;20170;-81
2023/04/25 11:58:24;;;;;;;0.57;0.57;;;;;;;;;;5099675;28;20213;-81
2023/04/25 12:00:50;;;;;;;0.60;0.60;;;;;;;;;;5099595;28;20183;-82
2023/04/25 12:03:16;;;;;;;0.70;0.70;;;;;;;;;;5107408;28;20735;-84
2023/04/25 12:05:42;;;;;;;0.77;0.77;;;;;;;;;;5098904;28;20209;-82
2023/04/25 12:08:11;;;;;;;0.60;0.60;;;;;;;;;;5099811;28;20175;-85
2023/04/25 12:10:41;;;;;;;0.67;0.67;;;;;;;;;;5101184;28;20667;-81
2023/04/25 12:13:36;;;;;;;0.70;0.70;;;;;;;;;;5112681;28;20173;-82
2023/04/25 12:16:02;;;;;;;0.70;0.70;;;;;;;;;;5079710;28;20181;-83
2023/04/25 12:18:28;;;;;;;0.63;0.63;;;;;;;;;;5096705;28;20694;-81
2023/04/25 12:20:54;;;;;;;0.50;0.50;;;;;;;;;;5093635;28;20648;-81
2023/04/25 12:23:30;;;;;;;0.60;0.60;;;;;;;;;;5076094;28;20201;-81
2023/04/25 12:25:56;;;;;;;0.60;0.60;;;;;;;;;;5083757;28;20209;-81
2023/04/25 12:28:31;;;;;;;0.60;0.60;;;;;;;;;;5095298;28;20182;-81
2023/04/25 12:31:06;;;;;;;0.70;0.70;;;;;;;;;;5084002;28;20174;-81
2023/04/25 12:33:33;;;;;;;0.70;0.70;;;;;;;;;;5076953;28;20193;-81
2023/04/25 12:36:00;;;;;;;0.63;0.63;;;;;;;;;;5080468;28;20198;-81
2023/04/25 12:38:30;;;;;;;0.60;0.60;;;;;;;;;;5073710;28;20205;-82
2023/04/25 12:40:57;;;;;;;0.60;0.60;;;;;;;;;;5086733;28;20197;-80
2023/04/25 12:43:23;;;;;;;0.50;0.50;;;;;;;;;;5078471;28;20198;-82
2023/04/25 12:45:50;;;;;;;0.70;0.70;;;;;;;;;;5091066;28;20206;-83
2023/04/25 12:48:17;;;;;;;0.70;0.70;;;;;;;;;;5077756;28;20193;-82
2023/04/25 12:50:43;;;;;;;0.70;0.70;;;;;;;;;;5092384;28;20198;-82
2023/04/25 12:53:09;;;;;;;0.60;0.60;;;;;;;;;;5093664;28;20181;-81
2023/04/25 12:55:35;;;;;;;0.60;0.60;;;;;;;;;;5091107;28;20170;-80
2023/04/25 12:58:03;;;;;;;0.60;0.60;;;;;;;;;;5089667;28;20244;-81
2023/04/25 13:00:29;;;;;;;0.60;0.60;;;;;;;;;;5090102;28;20216;-80
2023/04/25 13:02:55;;;;;;;0.60;0.60;;;;;;;;;;5084384;28;20231;-80
2023/04/25 13:05:22;;;;;;;0.70;0.70;;;;;;;;;;5089027;28;20685;-80
2023/04/25 13:07:48;;;;;;;0.57;0.57;;;;;;;;;;5093193;28;20269;-83
2023/04/25 13:10:14;;;;;;;0.60;0.60;;;;;;;;;;5080109;28;20565;-82
2023/04/25 13:12:40;;;;;;;0.63;0.63;;;;;;;;;;5093774;28;20242;-81
2023/04/25 13:15:09;;;;;;;0.67;0.67;;;;;;;;;;5080059;28;20206;-81
2023/04/25 13:17:35;;;;;;;0.60;0.60;;;;;;;;;;5091682;28;20192;-81
2023/04/25 13:20:01;;;;;;;0.70;0.70;;;;;;;;;;5094565;28;20177;-80
2023/04/25 13:22:27;;;;;;;0.50;0.50;;;;;;;;;;5094902;28;20192;-85
2023/04/25 13:24:53;;;;;;;0.50;0.50;;;;;;;;;;5084541;28;20198;-84
2023/04/25 13:27:18;;;;;;;0.47;0.47;;;;;;;;;;5079744;28;20186;-82
2023/04/25 13:29:45;;;;;;;0.60;0.60;;;;;;;;;;5085918;28;20247;-84
2023/04/25 13:32:11;;;;;;;0.70;0.70;;;;;;;;;;5090962;28;20288;-81
2023/04/25 13:34:36;;;;;;;0.60;0.60;;;;;;;;;;5094222;28;20206;-82
2023/04/25 13:37:02;;;;;;;0.50;0.50;;;;;;;;;;5094944;28;20640;-83
2023/04/25 13:39:28;;;;;;;0.60;0.60;;;;;;;;;;5085933;28;20543;-88
2023/04/25 13:41:55;;;;;;;0.50;0.50;;;;;;;;;;5093577;28;20267;-84
2023/04/25 13:44:21;;;;;;;0.60;0.60;;;;;;;;;;5098984;28;20212;-83
2023/04/25 13:46:47;;;;;;;0.70;0.70;;;;;;;;;;5088092;28;20324;-84
2023/04/25 13:49:13;;;;;;;0.60;0.60;;;;;;;;;;5091195;28;20296;-84
2023/04/25 13:51:40;;;;;;;0.60;0.60;;;;;;;;;;5082937;28;20653;-82
2023/04/25 13:54:07;;;;;;;0.50;0.50;;;;;;;;;;5101686;28;20225;-84
2023/04/25 13:56:33;;;;;;;0.60;0.60;;;;;;;;;;5093121;28;20284;-84
2023/04/25 13:58:59;;;;;;;0.50;0.50;;;;;;;;;;5093547;28;20204;-84
2023/04/25 14:01:26;;;;;;;0.60;0.60;;;;;;;;;;5086740;28;20273;-81
2023/04/25 14:03:52;;;;;;;0.60;0.60;;;;;;;;;;5098122;28;20197;-84
2023/04/25 14:06:22;;;;;;;0.60;0.60;;;;;;;;;;5092020;28;20214;-82
2023/04/25 14:08:48;;;;;;;0.60;0.60;;;;;;;;;;5088555;28;20189;-83
2023/04/25 14:11:14;;;;;;;0.70;0.70;;;;;;;;;;5086419;28;20641;-82
2023/04/25 14:13:40;;;;;;;0.60;0.60;;;;;;;;;;5084160;28;20202;-81
2023/04/25 14:16:06;;;;;;;0.60;0.60;;;;;;;;;;5084743;28;20185;-81
2023/04/25 14:18:32;;;;;;;0.50;0.50;;;;;;;;;;5084382;28;20221;-83
2023/04/25 14:20:58;;;;;;;0.50;0.50;;;;;;;;;;5081200;28;20174;-83
2023/04/25 14:23:24;;;;;;;0.60;0.60;;;;;;;;;;5082618;28;20681;-80
2023/04/25 14:25:50;;;;;;;0.53;0.53;;;;;;;;;;5089348;28;20202;-82
2023/04/25 14:28:16;;;;;;;0.50;0.50;;;;;;;;;;5091448;28;20206;-83
2023/04/25 14:30:42;;;;;;;0.50;0.50;;;;;;;;;;5090657;28;20229;-82
2023/04/25 14:33:08;;;;;;;0.50;0.50;;;;;;;;;;5086462;28;20187;-82
2023/04/25 14:35:35;;;;;;;0.50;0.50;;;;;;;;;;5086908;28;20170;-82
2023/04/25 14:38:01;;;;;;;0.50;0.50;;;;;;;;;;5086598;28;20200;-81
2023/04/25 14:40:27;;;;;;;0.50;0.50;;;;;;;;;;5087554;28;20186;-82